sensor_id;sensor_type;location;lat;lon;timestamp;temperature;humidity
38398;DHT22;24179;52.094;4.408;2023-07-16T00:01:54;17.60;99.90
38398;DHT22;24179;52.094;4.408;2023-07-16T00:04:55;17.60;99.90
38398;DHT22;24179;52.094;4.408;2023-07-16T00:07:55;17.50;99.90
38398;DHT22;24179;52.094;4.408;2023-07-16T00:10:59;17.50;99.90
38398;DHT22;24179;52.094;4.408;2023-07-16T00:14:00;17.50;99.90
38398;DHT22;24179;52.094;4.408;2023-07-16T00:17:02;18.10;99.90
38398;DHT22;24179;52.094;4.408;2023-07-16T00:20:06;17.60;99.90
38398;DHT22;24179;52.094;4.408;2023-07-16T00:23:07;17.60;99.90
38398;DHT22;24179;52.094;4.408;2023-07-16T00:26:07;17.60;99.90
38398;DHT22;24179;52.094;4.408;2023-07-16T00:29:11;17.60;99.90
38398;DHT22;24179;52.094;4.408;2023-07-16T00:32:12;17.50;99.90
38398;DHT22;24179;52.094;4.408;2023-07-16T00:35:12;17.60;99.90
38398;DHT22;24179;52.094;4.408;2023-07-16T00:38:13;17.60;99.90
38398;DHT22;24179;52.094;4.408;2023-07-16T00:41:13;17.50;99.90
38398;DHT22;24179;52.094;4.408;2023-07-16T00:44:14;17.50;99.90
38398;DHT22;24179;52.094;4.408;2023-07-16T00:47:15;17.60;99.90
38398;DHT22;24179;52.094;4.408;2023-07-16T00:50:16;17.60;99.90
38398;DHT22;24179;52.094;4.408;2023-07-16T00:53:16;17.70;99.90
38398;DHT22;24179;52.094;4.408;2023-07-16T00:56:36;17.70;99.90
38398;DHT22;24179;52.094;4.408;2023-07-16T00:59:37;17.60;99.90
38398;DHT22;24179;52.094;4.408;2023-07-16T01:02:37;17.60;99.90
38398;DHT22;24179;52.094;4.408;2023-07-16T01:05:56;17.70;99.90
38398;DHT22;24179;52.094;4.408;2023-07-16T01:09:00;17.60;99.90
38398;DHT22;24179;52.094;4.408;2023-07-16T01:12:02;17.60;99.90
38398;DHT22;24179;52.094;4.408;2023-07-16T01:15:03;17.60;99.90
38398;DHT22;24179;52.094;4.408;2023-07-16T01:18:04;17.60;99.90
38398;DHT22;24179;52.094;4.408;2023-07-16T01:21:05;17.60;99.90
38398;DHT22;24179;52.094;4.408;2023-07-16T01:27:17;17.50;99.90
38398;DHT22;24179;52.094;4.408;2023-07-16T01:30:23;17.60;99.90
38398;DHT22;24179;52.094;4.408;2023-07-16T01:33:24;17.70;99.90
38398;DHT22;24179;52.094;4.408;2023-07-16T01:36:25;17.60;99.90
38398;DHT22;24179;52.094;4.408;2023-07-16T01:39:26;17.60;99.90
38398;DHT22;24179;52.094;4.408;2023-07-16T01:42:27;17.50;99.90
38398;DHT22;24179;52.094;4.408;2023-07-16T01:45:30;17.50;99.90
38398;DHT22;24179;52.094;4.408;2023-07-16T01:48:32;17.50;99.90
38398;DHT22;24179;52.094;4.408;2023-07-16T01:51:32;17.40;99.90
38398;DHT22;24179;52.094;4.408;2023-07-16T01:54:34;17.40;99.90
38398;DHT22;24179;52.094;4.408;2023-07-16T01:57:35;17.50;99.90
38398;DHT22;24179;52.094;4.408;2023-07-16T02:00:36;17.60;99.90
38398;DHT22;24179;52.094;4.408;2023-07-16T02:03:36;17.60;99.90
38398;DHT22;24179;52.094;4.408;2023-07-16T02:06:37;17.70;99.90
38398;DHT22;24179;52.094;4.408;2023-07-16T02:09:40;17.60;99.90
38398;DHT22;24179;52.094;4.408;2023-07-16T02:12:40;17.60;99.90
38398;DHT22;24179;52.094;4.408;2023-07-16T02:15:42;17.60;99.90
38398;DHT22;24179;52.094;4.408;2023-07-16T02:18:42;17.60;99.90
38398;DHT22;24179;52.094;4.408;2023-07-16T02:21:42;17.60;99.90
38398;DHT22;24179;52.094;4.408;2023-07-16T02:24:43;17.60;99.90
38398;DHT22;24179;52.094;4.408;2023-07-16T02:27:44;17.60;99.90
38398;DHT22;24179;52.094;4.408;2023-07-16T02:30:44;17.60;99.90
38398;DHT22;24179;52.094;4.408;2023-07-16T02:33:45;17.60;99.90
38398;DHT22;24179;52.094;4.408;2023-07-16T02:36:54;17.60;99.90
38398;DHT22;24179;52.094;4.408;2023-07-16T02:39:55;17.50;99.90
38398;DHT22;24179;52.094;4.408;2023-07-16T02:42:58;17.70;99.90
38398;DHT22;24179;52.094;4.408;2023-07-16T02:45:59;17.80;99.90
38398;DHT22;24179;52.094;4.408;2023-07-16T02:49:01;17.80;99.90
38398;DHT22;24179;52.094;4.408;2023-07-16T02:52:02;17.80;99.90
38398;DHT22;24179;52.094;4.408;2023-07-16T02:55:05;17.80;99.90
38398;DHT22;24179;52.094;4.408;2023-07-16T02:58:06;17.80;99.90
38398;DHT22;24179;52.094;4.408;2023-07-16T03:01:06;17.90;99.90
38398;DHT22;24179;52.094;4.408;2023-07-16T03:04:07;17.80;99.90
38398;DHT22;24179;52.094;4.408;2023-07-16T03:07:07;17.80;99.90
38398;DHT22;24179;52.094;4.408;2023-07-16T03:10:08;17.70;99.90
38398;DHT22;24179;52.094;4.408;2023-07-16T03:13:09;17.60;99.90
38398;DHT22;24179;52.094;4.408;2023-07-16T03:16:17;17.60;99.90
38398;DHT22;24179;52.094;4.408;2023-07-16T03:19:18;17.60;99.90
38398;DHT22;24179;52.094;4.408;2023-07-16T03:22:18;17.60;99.90
38398;DHT22;24179;52.094;4.408;2023-07-16T03:25:20;17.60;99.90
38398;DHT22;24179;52.094;4.408;2023-07-16T03:28:20;17.60;99.90
38398;DHT22;24179;52.094;4.408;2023-07-16T03:31:21;17.60;99.90
38398;DHT22;24179;52.094;4.408;2023-07-16T03:34:22;17.40;99.90
38398;DHT22;24179;52.094;4.408;2023-07-16T03:37:24;17.30;99.90
38398;DHT22;24179;52.094;4.408;2023-07-16T03:40:25;17.20;99.90
38398;DHT22;24179;52.094;4.408;2023-07-16T03:43:25;17.00;99.90
38398;DHT22;24179;52.094;4.408;2023-07-16T03:46:26;17.00;99.90
38398;DHT22;24179;52.094;4.408;2023-07-16T03:49:26;17.00;99.90
38398;DHT22;24179;52.094;4.408;2023-07-16T03:52:30;17.00;99.90
38398;DHT22;24179;52.094;4.408;2023-07-16T03:55:33;17.00;99.90
38398;DHT22;24179;52.094;4.408;2023-07-16T03:58:37;17.10;99.90
38398;DHT22;24179;52.094;4.408;2023-07-16T04:01:37;16.90;99.90
38398;DHT22;24179;52.094;4.408;2023-07-16T04:04:38;16.70;99.90
38398;DHT22;24179;52.094;4.408;2023-07-16T04:07:40;16.70;99.90
38398;DHT22;24179;52.094;4.408;2023-07-16T04:10:46;16.90;99.90
38398;DHT22;24179;52.094;4.408;2023-07-16T04:13:47;17.30;99.90
38398;DHT22;24179;52.094;4.408;2023-07-16T04:16:52;16.80;99.90
38398;DHT22;24179;52.094;4.408;2023-07-16T04:19:53;16.80;99.90
38398;DHT22;24179;52.094;4.408;2023-07-16T04:22:53;16.40;99.90
38398;DHT22;24179;52.094;4.408;2023-07-16T04:25:55;16.90;99.90
38398;DHT22;24179;52.094;4.408;2023-07-16T04:28:55;16.90;99.90
38398;DHT22;24179;52.094;4.408;2023-07-16T04:31:56;17.00;99.90
38398;DHT22;24179;52.094;4.408;2023-07-16T04:34:57;17.10;99.90
38398;DHT22;24179;52.094;4.408;2023-07-16T04:37:58;17.20;99.90
38398;DHT22;24179;52.094;4.408;2023-07-16T04:40:58;17.30;99.90
38398;DHT22;24179;52.094;4.408;2023-07-16T04:43:59;16.80;99.90
38398;DHT22;24179;52.094;4.408;2023-07-16T04:46:59;17.30;99.90
38398;DHT22;24179;52.094;4.408;2023-07-16T04:50:00;17.40;99.90
38398;DHT22;24179;52.094;4.408;2023-07-16T04:53:00;17.30;99.90
38398;DHT22;24179;52.094;4.408;2023-07-16T04:56:02;17.30;99.90
38398;DHT22;24179;52.094;4.408;2023-07-16T04:59:02;17.30;99.90
38398;DHT22;24179;52.094;4.408;2023-07-16T05:02:04;17.30;99.90
38398;DHT22;24179;52.094;4.408;2023-07-16T05:05:04;17.30;99.90
38398;DHT22;24179;52.094;4.408;2023-07-16T05:08:05;17.50;99.90
38398;DHT22;24179;52.094;4.408;2023-07-16T05:11:06;17.60;99.90
38398;DHT22;24179;52.094;4.408;2023-07-16T05:14:07;17.70;99.90
38398;DHT22;24179;52.094;4.408;2023-07-16T05:17:14;17.90;99.90
38398;DHT22;24179;52.094;4.408;2023-07-16T05:20:14;17.90;99.90
38398;DHT22;24179;52.094;4.408;2023-07-16T05:23:16;17.80;99.90
38398;DHT22;24179;52.094;4.408;2023-07-16T05:26:20;17.90;99.90
38398;DHT22;24179;52.094;4.408;2023-07-16T05:29:20;17.80;99.90
38398;DHT22;24179;52.094;4.408;2023-07-16T05:32:21;17.80;99.90
38398;DHT22;24179;52.094;4.408;2023-07-16T05:35:22;17.90;99.90
38398;DHT22;24179;52.094;4.408;2023-07-16T05:38:22;18.00;99.90
38398;DHT22;24179;52.094;4.408;2023-07-16T05:41:23;18.00;99.90
38398;DHT22;24179;52.094;4.408;2023-07-16T05:44:23;18.00;99.90
38398;DHT22;24179;52.094;4.408;2023-07-16T05:47:24;18.00;99.90
38398;DHT22;24179;52.094;4.408;2023-07-16T05:50:24;18.00;99.90
38398;DHT22;24179;52.094;4.408;2023-07-16T05:53:25;17.80;99.90
38398;DHT22;24179;52.094;4.408;2023-07-16T05:56:25;17.80;99.90
38398;DHT22;24179;52.094;4.408;2023-07-16T05:59:26;17.80;99.90
38398;DHT22;24179;52.094;4.408;2023-07-16T06:02:26;17.90;99.90
38398;DHT22;24179;52.094;4.408;2023-07-16T06:05:27;18.00;99.90
38398;DHT22;24179;52.094;4.408;2023-07-16T06:08:40;18.10;99.90
38398;DHT22;24179;52.094;4.408;2023-07-16T06:11:40;18.30;99.90
38398;DHT22;24179;52.094;4.408;2023-07-16T06:14:41;18.20;99.90
38398;DHT22;24179;52.094;4.408;2023-07-16T06:17:42;18.20;99.90
38398;DHT22;24179;52.094;4.408;2023-07-16T06:20:45;18.30;99.90
38398;DHT22;24179;52.094;4.408;2023-07-16T06:24:06;18.30;99.90
38398;DHT22;24179;52.094;4.408;2023-07-16T06:27:08;18.20;99.90
38398;DHT22;24179;52.094;4.408;2023-07-16T06:30:09;18.20;99.90
38398;DHT22;24179;52.094;4.408;2023-07-16T06:33:09;18.10;99.90
38398;DHT22;24179;52.094;4.408;2023-07-16T06:36:10;18.30;99.90
38398;DHT22;24179;52.094;4.408;2023-07-16T06:39:13;18.50;99.90
38398;DHT22;24179;52.094;4.408;2023-07-16T06:42:13;18.70;99.90
38398;DHT22;24179;52.094;4.408;2023-07-16T06:45:14;18.60;99.90
38398;DHT22;24179;52.094;4.408;2023-07-16T06:48:20;18.70;99.90
38398;DHT22;24179;52.094;4.408;2023-07-16T06:51:24;18.90;99.90
38398;DHT22;24179;52.094;4.408;2023-07-16T06:54:24;19.30;99.90
38398;DHT22;24179;52.094;4.408;2023-07-16T06:57:25;19.40;99.90
38398;DHT22;24179;52.094;4.408;2023-07-16T07:00:25;19.10;99.90
38398;DHT22;24179;52.094;4.408;2023-07-16T07:03:26;19.20;99.90
38398;DHT22;24179;52.094;4.408;2023-07-16T07:06:27;19.10;99.90
38398;DHT22;24179;52.094;4.408;2023-07-16T07:09:28;19.30;99.90
38398;DHT22;24179;52.094;4.408;2023-07-16T07:12:28;19.40;99.90
38398;DHT22;24179;52.094;4.408;2023-07-16T07:15:37;19.50;99.90
38398;DHT22;24179;52.094;4.408;2023-07-16T07:18:40;19.80;99.90
38398;DHT22;24179;52.094;4.408;2023-07-16T07:21:41;19.80;99.90
38398;DHT22;24179;52.094;4.408;2023-07-16T07:24:41;19.50;99.90
38398;DHT22;24179;52.094;4.408;2023-07-16T07:27:42;19.30;99.90
38398;DHT22;24179;52.094;4.408;2023-07-16T07:30:43;19.20;99.90
38398;DHT22;24179;52.094;4.408;2023-07-16T07:33:44;19.10;99.90
38398;DHT22;24179;52.094;4.408;2023-07-16T07:36:44;19.30;99.90
38398;DHT22;24179;52.094;4.408;2023-07-16T07:39:45;19.10;99.90
38398;DHT22;24179;52.094;4.408;2023-07-16T07:42:50;19.20;99.90
38398;DHT22;24179;52.094;4.408;2023-07-16T07:45:50;19.50;99.90
38398;DHT22;24179;52.094;4.408;2023-07-16T07:48:51;19.80;99.90
38398;DHT22;24179;52.094;4.408;2023-07-16T07:51:51;19.80;99.90
38398;DHT22;24179;52.094;4.408;2023-07-16T07:54:53;20.10;99.90
38398;DHT22;24179;52.094;4.408;2023-07-16T07:57:54;20.00;99.90
38398;DHT22;24179;52.094;4.408;2023-07-16T08:00:54;20.10;99.90
38398;DHT22;24179;52.094;4.408;2023-07-16T08:03:55;19.70;99.90
38398;DHT22;24179;52.094;4.408;2023-07-16T08:06:55;19.80;99.90
38398;DHT22;24179;52.094;4.408;2023-07-16T08:09:56;20.20;99.90
38398;DHT22;24179;52.094;4.408;2023-07-16T08:12:56;20.40;99.90
38398;DHT22;24179;52.094;4.408;2023-07-16T08:15:57;20.40;99.90
38398;DHT22;24179;52.094;4.408;2023-07-16T08:18:57;19.90;99.90
38398;DHT22;24179;52.094;4.408;2023-07-16T08:21:58;19.70;99.90
38398;DHT22;24179;52.094;4.408;2023-07-16T08:24:58;20.10;99.90
38398;DHT22;24179;52.094;4.408;2023-07-16T08:27:58;20.10;99.90
38398;DHT22;24179;52.094;4.408;2023-07-16T08:31:00;20.00;99.90
38398;DHT22;24179;52.094;4.408;2023-07-16T08:34:00;19.80;99.90
38398;DHT22;24179;52.094;4.408;2023-07-16T08:37:01;19.70;99.90
38398;DHT22;24179;52.094;4.408;2023-07-16T08:40:01;19.40;99.90
38398;DHT22;24179;52.094;4.408;2023-07-16T08:43:03;19.40;99.90
38398;DHT22;24179;52.094;4.408;2023-07-16T08:46:05;19.40;99.90
38398;DHT22;24179;52.094;4.408;2023-07-16T08:49:07;19.40;99.90
38398;DHT22;24179;52.094;4.408;2023-07-16T08:52:09;19.50;99.90
38398;DHT22;24179;52.094;4.408;2023-07-16T08:55:09;19.60;99.90
38398;DHT22;24179;52.094;4.408;2023-07-16T08:58:13;19.60;99.90
38398;DHT22;24179;52.094;4.408;2023-07-16T09:01:15;20.50;99.90
38398;DHT22;24179;52.094;4.408;2023-07-16T09:04:18;20.80;99.90
38398;DHT22;24179;52.094;4.408;2023-07-16T09:07:19;20.60;99.90
38398;DHT22;24179;52.094;4.408;2023-07-16T09:10:19;20.60;99.90
38398;DHT22;24179;52.094;4.408;2023-07-16T09:13:21;20.90;99.90
38398;DHT22;24179;52.094;4.408;2023-07-16T09:16:26;20.80;99.90
38398;DHT22;24179;52.094;4.408;2023-07-16T09:19:27;20.80;99.90
38398;DHT22;24179;52.094;4.408;2023-07-16T09:22:29;20.30;99.90
38398;DHT22;24179;52.094;4.408;2023-07-16T09:25:30;20.00;99.90
38398;DHT22;24179;52.094;4.408;2023-07-16T09:28:32;20.20;99.90
38398;DHT22;24179;52.094;4.408;2023-07-16T09:31:33;20.00;99.90
38398;DHT22;24179;52.094;4.408;2023-07-16T09:34:34;20.00;99.90
38398;DHT22;24179;52.094;4.408;2023-07-16T09:37:35;19.90;99.90
38398;DHT22;24179;52.094;4.408;2023-07-16T09:40:37;19.90;99.90
38398;DHT22;24179;52.094;4.408;2023-07-16T09:43:37;19.80;99.90
38398;DHT22;24179;52.094;4.408;2023-07-16T09:46:38;19.80;99.90
38398;DHT22;24179;52.094;4.408;2023-07-16T09:49:39;19.60;99.90
38398;DHT22;24179;52.094;4.408;2023-07-16T09:52:39;19.90;99.90
38398;DHT22;24179;52.094;4.408;2023-07-16T09:55:40;20.10;99.90
38398;DHT22;24179;52.094;4.408;2023-07-16T09:58:40;20.30;99.90
38398;DHT22;24179;52.094;4.408;2023-07-16T10:01:41;21.10;99.90
38398;DHT22;24179;52.094;4.408;2023-07-16T10:04:42;21.90;99.90
38398;DHT22;24179;52.094;4.408;2023-07-16T10:07:43;22.60;99.90
38398;DHT22;24179;52.094;4.408;2023-07-16T10:10:45;21.70;99.90
38398;DHT22;24179;52.094;4.408;2023-07-16T10:13:50;20.50;99.90
38398;DHT22;24179;52.094;4.408;2023-07-16T10:16:51;21.10;99.90
38398;DHT22;24179;52.094;4.408;2023-07-16T10:19:55;21.10;99.90
38398;DHT22;24179;52.094;4.408;2023-07-16T10:22:56;21.50;99.90
38398;DHT22;24179;52.094;4.408;2023-07-16T10:25:59;22.50;99.90
38398;DHT22;24179;52.094;4.408;2023-07-16T10:29:00;22.60;99.90
38398;DHT22;24179;52.094;4.408;2023-07-16T10:32:00;22.40;99.90
38398;DHT22;24179;52.094;4.408;2023-07-16T10:35:04;21.80;99.90
38398;DHT22;24179;52.094;4.408;2023-07-16T10:38:05;22.20;99.90
38398;DHT22;24179;52.094;4.408;2023-07-16T10:41:05;22.30;98.20
38398;DHT22;24179;52.094;4.408;2023-07-16T10:44:08;22.50;98.40
38398;DHT22;24179;52.094;4.408;2023-07-16T10:47:08;21.90;98.10
38398;DHT22;24179;52.094;4.408;2023-07-16T10:50:09;22.30;98.20
38398;DHT22;24179;52.094;4.408;2023-07-16T10:53:10;22.10;97.90
38398;DHT22;24179;52.094;4.408;2023-07-16T10:56:11;22.00;98.00
38398;DHT22;24179;52.094;4.408;2023-07-16T10:59:12;21.80;98.90
38398;DHT22;24179;52.094;4.408;2023-07-16T11:02:13;21.30;99.90
38398;DHT22;24179;52.094;4.408;2023-07-16T11:05:14;22.10;99.90
38398;DHT22;24179;52.094;4.408;2023-07-16T11:08:24;22.70;99.40
38398;DHT22;24179;52.094;4.408;2023-07-16T11:11:28;22.00;99.00
38398;DHT22;24179;52.094;4.408;2023-07-16T11:14:30;21.90;99.20
38398;DHT22;24179;52.094;4.408;2023-07-16T11:17:30;22.80;99.20
38398;DHT22;24179;52.094;4.408;2023-07-16T11:20:30;23.30;98.10
38398;DHT22;24179;52.094;4.408;2023-07-16T11:23:34;24.00;97.10
38398;DHT22;24179;52.094;4.408;2023-07-16T11:26:35;24.10;95.00
38398;DHT22;24179;52.094;4.408;2023-07-16T11:29:36;24.00;93.70
38398;DHT22;24179;52.094;4.408;2023-07-16T11:32:38;23.70;92.70
38398;DHT22;24179;52.094;4.408;2023-07-16T11:35:41;24.10;93.90
38398;DHT22;24179;52.094;4.408;2023-07-16T11:38:42;24.10;92.10
38398;DHT22;24179;52.094;4.408;2023-07-16T11:41:53;23.80;92.80
38398;DHT22;24179;52.094;4.408;2023-07-16T11:44:53;23.90;92.30
38398;DHT22;24179;52.094;4.408;2023-07-16T11:47:55;24.00;91.10
38398;DHT22;24179;52.094;4.408;2023-07-16T11:50:55;24.20;90.90
38398;DHT22;24179;52.094;4.408;2023-07-16T11:53:56;24.20;90.40
38398;DHT22;24179;52.094;4.408;2023-07-16T11:56:57;24.10;90.70
38398;DHT22;24179;52.094;4.408;2023-07-16T11:59:58;24.70;91.30
38398;DHT22;24179;52.094;4.408;2023-07-16T12:02:58;23.80;90.50
38398;DHT22;24179;52.094;4.408;2023-07-16T12:05:59;23.40;91.00
38398;DHT22;24179;52.094;4.408;2023-07-16T12:08:59;23.20;91.60
38398;DHT22;24179;52.094;4.408;2023-07-16T12:12:00;23.40;91.40
38398;DHT22;24179;52.094;4.408;2023-07-16T12:15:01;23.90;91.70
38398;DHT22;24179;52.094;4.408;2023-07-16T12:18:01;25.00;91.00
38398;DHT22;24179;52.094;4.408;2023-07-16T12:21:02;24.80;90.80
38398;DHT22;24179;52.094;4.408;2023-07-16T12:24:02;25.30;91.20
38398;DHT22;24179;52.094;4.408;2023-07-16T12:27:03;24.60;90.70
38398;DHT22;24179;52.094;4.408;2023-07-16T12:30:04;24.20;91.20
38398;DHT22;24179;52.094;4.408;2023-07-16T12:33:04;23.40;91.40
38398;DHT22;24179;52.094;4.408;2023-07-16T12:36:08;23.30;91.80
38398;DHT22;24179;52.094;4.408;2023-07-16T12:39:11;23.10;91.90
38398;DHT22;24179;52.094;4.408;2023-07-16T12:42:11;23.70;92.10
38398;DHT22;24179;52.094;4.408;2023-07-16T12:45:12;24.00;90.90
38398;DHT22;24179;52.094;4.408;2023-07-16T12:48:12;24.90;90.80
38398;DHT22;24179;52.094;4.408;2023-07-16T12:51:13;25.70;89.20
38398;DHT22;24179;52.094;4.408;2023-07-16T12:54:13;25.40;88.40
38398;DHT22;24179;52.094;4.408;2023-07-16T12:57:14;26.20;88.00
38398;DHT22;24179;52.094;4.408;2023-07-16T13:00:14;27.30;86.00
38398;DHT22;24179;52.094;4.408;2023-07-16T13:03:15;26.50;85.70
38398;DHT22;24179;52.094;4.408;2023-07-16T13:06:16;25.50;87.50
38398;DHT22;24179;52.094;4.408;2023-07-16T13:09:17;24.60;89.40
38398;DHT22;24179;52.094;4.408;2023-07-16T13:12:17;24.70;90.10
38398;DHT22;24179;52.094;4.408;2023-07-16T13:15:18;24.40;90.80
38398;DHT22;24179;52.094;4.408;2023-07-16T13:18:19;24.90;91.30
38398;DHT22;24179;52.094;4.408;2023-07-16T13:21:19;24.80;91.20
38398;DHT22;24179;52.094;4.408;2023-07-16T13:24:20;24.60;91.70
38398;DHT22;24179;52.094;4.408;2023-07-16T13:27:21;25.50;91.30
38398;DHT22;24179;52.094;4.408;2023-07-16T13:30:22;25.40;91.30
38398;DHT22;24179;52.094;4.408;2023-07-16T13:33:22;26.20;91.50
38398;DHT22;24179;52.094;4.408;2023-07-16T13:36:23;26.30;91.20
38398;DHT22;24179;52.094;4.408;2023-07-16T13:39:23;26.10;91.40
38398;DHT22;24179;52.094;4.408;2023-07-16T13:42:24;25.70;91.00
38398;DHT22;24179;52.094;4.408;2023-07-16T13:45:24;25.10;90.90
38398;DHT22;24179;52.094;4.408;2023-07-16T13:48:25;24.20;91.90
38398;DHT22;24179;52.094;4.408;2023-07-16T13:51:26;24.40;92.30
38398;DHT22;24179;52.094;4.408;2023-07-16T13:54:26;23.90;91.30
38398;DHT22;24179;52.094;4.408;2023-07-16T13:57:27;24.00;92.20
38398;DHT22;24179;52.094;4.408;2023-07-16T14:00:27;24.40;90.70
38398;DHT22;24179;52.094;4.408;2023-07-16T14:03:30;25.10;90.80
38398;DHT22;24179;52.094;4.408;2023-07-16T14:06:31;24.80;91.00
38398;DHT22;24179;52.094;4.408;2023-07-16T14:09:31;24.70;91.30
38398;DHT22;24179;52.094;4.408;2023-07-16T14:12:32;24.60;91.40
38398;DHT22;24179;52.094;4.408;2023-07-16T14:15:33;25.50;91.60
38398;DHT22;24179;52.094;4.408;2023-07-16T14:18:34;25.00;92.20
38398;DHT22;24179;52.094;4.408;2023-07-16T14:21:34;25.10;92.50
38398;DHT22;24179;52.094;4.408;2023-07-16T14:24:35;24.40;93.10
38398;DHT22;24179;52.094;4.408;2023-07-16T14:27:35;24.80;92.80
38398;DHT22;24179;52.094;4.408;2023-07-16T14:30:36;23.80;93.70
38398;DHT22;24179;52.094;4.408;2023-07-16T14:33:36;24.80;93.60
38398;DHT22;24179;52.094;4.408;2023-07-16T14:36:40;24.20;93.40
38398;DHT22;24179;52.094;4.408;2023-07-16T14:39:42;24.40;92.90
38398;DHT22;24179;52.094;4.408;2023-07-16T14:42:42;23.80;93.50
38398;DHT22;24179;52.094;4.408;2023-07-16T14:45:46;23.80;93.80
38398;DHT22;24179;52.094;4.408;2023-07-16T14:48:46;24.40;94.00
38398;DHT22;24179;52.094;4.408;2023-07-16T14:51:47;25.60;92.90
38398;DHT22;24179;52.094;4.408;2023-07-16T14:54:47;25.50;92.90
38398;DHT22;24179;52.094;4.408;2023-07-16T14:57:48;24.30;92.20
38398;DHT22;24179;52.094;4.408;2023-07-16T15:00:48;24.20;92.40
38398;DHT22;24179;52.094;4.408;2023-07-16T15:03:49;25.30;92.60
38398;DHT22;24179;52.094;4.408;2023-07-16T15:06:49;24.90;92.40
38398;DHT22;24179;52.094;4.408;2023-07-16T15:09:51;26.00;92.30
38398;DHT22;24179;52.094;4.408;2023-07-16T15:12:51;25.10;92.20
38398;DHT22;24179;52.094;4.408;2023-07-16T15:15:51;25.00;92.30
38398;DHT22;24179;52.094;4.408;2023-07-16T15:18:52;25.70;91.80
38398;DHT22;24179;52.094;4.408;2023-07-16T15:21:53;24.80;91.90
38398;DHT22;24179;52.094;4.408;2023-07-16T15:24:53;25.30;92.20
38398;DHT22;24179;52.094;4.408;2023-07-16T15:27:54;24.70;92.00
38398;DHT22;24179;52.094;4.408;2023-07-16T15:30:54;24.80;92.40
38398;DHT22;24179;52.094;4.408;2023-07-16T15:33:55;25.80;91.70
38398;DHT22;24179;52.094;4.408;2023-07-16T15:36:55;26.10;91.00
38398;DHT22;24179;52.094;4.408;2023-07-16T15:39:56;26.20;90.40
38398;DHT22;24179;52.094;4.408;2023-07-16T15:42:59;25.80;90.00
38398;DHT22;24179;52.094;4.408;2023-07-16T15:45:59;25.30;88.10
38398;DHT22;24179;52.094;4.408;2023-07-16T15:49:00;23.90;86.80
38398;DHT22;24179;52.094;4.408;2023-07-16T15:52:00;24.00;85.30
38398;DHT22;24179;52.094;4.408;2023-07-16T15:55:01;23.30;83.30
38398;DHT22;24179;52.094;4.408;2023-07-16T15:58:01;23.30;82.30
38398;DHT22;24179;52.094;4.408;2023-07-16T16:01:02;23.50;84.10
38398;DHT22;24179;52.094;4.408;2023-07-16T16:04:03;23.10;86.20
38398;DHT22;24179;52.094;4.408;2023-07-16T16:07:06;22.80;84.80
38398;DHT22;24179;52.094;4.408;2023-07-16T16:10:07;23.70;85.10
38398;DHT22;24179;52.094;4.408;2023-07-16T16:13:07;24.00;83.10
38398;DHT22;24179;52.094;4.408;2023-07-16T16:16:08;24.20;81.00
38398;DHT22;24179;52.094;4.408;2023-07-16T16:19:08;24.00;82.10
38398;DHT22;24179;52.094;4.408;2023-07-16T16:22:09;23.10;85.90
38398;DHT22;24179;52.094;4.408;2023-07-16T16:25:09;22.50;86.80
38398;DHT22;24179;52.094;4.408;2023-07-16T16:28:10;23.00;87.60
38398;DHT22;24179;52.094;4.408;2023-07-16T16:31:11;23.10;88.10
38398;DHT22;24179;52.094;4.408;2023-07-16T16:34:11;23.60;87.80
38398;DHT22;24179;52.094;4.408;2023-07-16T16:37:12;23.60;87.40
38398;DHT22;24179;52.094;4.408;2023-07-16T16:40:12;23.00;88.60
38398;DHT22;24179;52.094;4.408;2023-07-16T16:43:13;22.90;89.70
38398;DHT22;24179;52.094;4.408;2023-07-16T16:46:14;22.40;90.40
38398;DHT22;24179;52.094;4.408;2023-07-16T16:49:14;22.90;90.90
38398;DHT22;24179;52.094;4.408;2023-07-16T16:52:14;23.20;91.00
38398;DHT22;24179;52.094;4.408;2023-07-16T16:55:15;22.90;91.00
38398;DHT22;24179;52.094;4.408;2023-07-16T16:58:18;22.30;90.60
38398;DHT22;24179;52.094;4.408;2023-07-16T17:01:21;21.80;90.80
38398;DHT22;24179;52.094;4.408;2023-07-16T17:04:21;21.80;91.20
38398;DHT22;24179;52.094;4.408;2023-07-16T17:07:22;21.80;91.60
38398;DHT22;24179;52.094;4.408;2023-07-16T17:10:22;21.70;91.70
38398;DHT22;24179;52.094;4.408;2023-07-16T17:13:23;22.00;92.00
38398;DHT22;24179;52.094;4.408;2023-07-16T17:16:24;21.70;92.50
38398;DHT22;24179;52.094;4.408;2023-07-16T17:19:25;21.50;93.30
38398;DHT22;24179;52.094;4.408;2023-07-16T17:22:25;21.60;93.50
38398;DHT22;24179;52.094;4.408;2023-07-16T17:25:27;21.60;93.30
38398;DHT22;24179;52.094;4.408;2023-07-16T17:28:27;21.30;93.20
38398;DHT22;24179;52.094;4.408;2023-07-16T17:31:27;21.60;93.30
38398;DHT22;24179;52.094;4.408;2023-07-16T17:34:28;21.50;93.40
38398;DHT22;24179;52.094;4.408;2023-07-16T17:37:29;21.60;93.60
38398;DHT22;24179;52.094;4.408;2023-07-16T17:40:31;21.70;93.40
38398;DHT22;24179;52.094;4.408;2023-07-16T17:43:35;21.60;92.70
38398;DHT22;24179;52.094;4.408;2023-07-16T17:46:35;21.40;92.40
38398;DHT22;24179;52.094;4.408;2023-07-16T17:49:36;21.30;92.80
38398;DHT22;24179;52.094;4.408;2023-07-16T17:52:36;21.30;92.70
38398;DHT22;24179;52.094;4.408;2023-07-16T17:55:37;21.30;92.90
38398;DHT22;24179;52.094;4.408;2023-07-16T17:58:37;21.30;93.20
38398;DHT22;24179;52.094;4.408;2023-07-16T18:01:38;21.10;93.20
38398;DHT22;24179;52.094;4.408;2023-07-16T18:04:38;21.00;93.60
38398;DHT22;24179;52.094;4.408;2023-07-16T18:07:39;20.80;94.10
38398;DHT22;24179;52.094;4.408;2023-07-16T18:10:39;20.90;94.40
38398;DHT22;24179;52.094;4.408;2023-07-16T18:13:43;20.90;94.50
38398;DHT22;24179;52.094;4.408;2023-07-16T18:16:44;20.80;94.90
38398;DHT22;24179;52.094;4.408;2023-07-16T18:19:44;20.80;95.30
38398;DHT22;24179;52.094;4.408;2023-07-16T18:22:45;20.70;95.40
38398;DHT22;24179;52.094;4.408;2023-07-16T18:25:45;20.80;95.70
38398;DHT22;24179;52.094;4.408;2023-07-16T18:28:48;20.80;95.70
38398;DHT22;24179;52.094;4.408;2023-07-16T18:31:48;20.80;95.80
38398;DHT22;24179;52.094;4.408;2023-07-16T18:34:48;20.70;95.90
38398;DHT22;24179;52.094;4.408;2023-07-16T18:37:49;20.60;96.00
38398;DHT22;24179;52.094;4.408;2023-07-16T18:40:50;20.60;96.20
38398;DHT22;24179;52.094;4.408;2023-07-16T18:43:51;20.50;96.30
38398;DHT22;24179;52.094;4.408;2023-07-16T18:46:51;20.60;96.40
38398;DHT22;24179;52.094;4.408;2023-07-16T18:49:52;20.50;96.70
38398;DHT22;24179;52.094;4.408;2023-07-16T18:52:53;20.50;96.80
38398;DHT22;24179;52.094;4.408;2023-07-16T18:55:54;20.60;96.70
38398;DHT22;24179;52.094;4.408;2023-07-16T18:58:54;20.50;97.00
38398;DHT22;24179;52.094;4.408;2023-07-16T19:01:55;20.40;97.20
38398;DHT22;24179;52.094;4.408;2023-07-16T19:04:55;20.30;97.40
38398;DHT22;24179;52.094;4.408;2023-07-16T19:07:56;20.30;97.50